createdAt,value
2022-11-10T00:00:56.775Z,10.06
2022-11-10T00:01:56.741Z,10.06
2022-11-10T00:02:56.736Z,10.06
2022-11-10T00:03:56.786Z,10.06
2022-11-10T00:04:56.733Z,10.04
2022-11-10T00:05:56.717Z,10.04
2022-11-10T00:06:56.740Z,10.03
2022-11-10T00:07:56.654Z,10.04
2022-11-10T00:08:56.676Z,10.07
2022-11-10T00:09:56.643Z,10.10
2022-11-10T00:10:56.671Z,10.09
2022-11-10T00:11:56.629Z,10.06
2022-11-10T00:12:56.614Z,10.07
2022-11-10T00:13:56.612Z,10.06
2022-11-10T00:14:56.598Z,10.04
2022-11-10T00:15:56.555Z,10.01
2022-11-10T00:16:56.674Z,9.99
2022-11-10T00:17:56.528Z,9.99
2022-11-10T00:18:56.515Z,9.99
2022-11-10T00:19:56.531Z,9.94
2022-11-10T00:20:56.498Z,9.94
2022-11-10T00:21:56.490Z,9.93
2022-11-10T00:22:56.600Z,9.93
2022-11-10T00:23:56.447Z,9.88
2022-11-10T00:24:56.438Z,9.88
2022-11-10T00:25:56.440Z,9.86
2022-11-10T00:26:56.441Z,9.89
2022-11-10T00:27:56.400Z,9.91
2022-11-10T00:28:56.430Z,9.89
2022-11-10T00:29:56.359Z,9.86
2022-11-10T00:30:56.381Z,9.85
2022-11-10T00:31:56.339Z,9.82
2022-11-10T00:32:56.342Z,9.79
2022-11-10T00:33:56.322Z,9.82
2022-11-10T00:34:56.420Z,9.91
2022-11-10T00:35:56.304Z,9.96
2022-11-10T00:36:56.272Z,9.96
2022-11-10T00:37:56.282Z,9.96
2022-11-10T00:38:56.268Z,9.96
2022-11-10T00:39:56.242Z,9.94
2022-11-10T00:40:56.325Z,9.97
2022-11-10T00:41:56.224Z,10.00
2022-11-10T00:42:56.216Z,9.99
2022-11-10T00:43:56.212Z,9.99
2022-11-10T00:44:56.187Z,9.94
2022-11-10T00:45:56.161Z,9.93
2022-11-10T00:46:56.255Z,9.91
2022-11-10T00:47:56.147Z,9.96
2022-11-10T00:48:56.123Z,9.94
2022-11-10T00:49:56.120Z,9.97
2022-11-10T00:50:56.101Z,9.93
2022-11-10T00:51:56.084Z,9.89
2022-11-10T00:52:56.098Z,9.86
2022-11-10T00:53:56.053Z,9.82
2022-11-10T00:54:56.036Z,9.81
2022-11-10T00:55:56.051Z,9.79
2022-11-10T00:56:56.038Z,9.81
2022-11-10T00:57:55.998Z,9.86
2022-11-10T00:58:56.095Z,9.82
2022-11-10T00:59:55.996Z,9.85
2022-11-10T01:00:55.995Z,9.86
2022-11-10T01:01:55.978Z,9.85
2022-11-10T01:02:55.943Z,9.85
2022-11-10T01:03:55.920Z,9.79
2022-11-10T01:04:55.953Z,9.83
2022-11-10T01:05:55.904Z,9.81
2022-11-10T01:06:55.888Z,9.81
2022-11-10T01:07:55.883Z,9.78
2022-11-10T01:08:55.863Z,9.79
2022-11-10T01:09:55.867Z,9.78
2022-11-10T01:10:55.964Z,9.78
2022-11-10T01:11:55.810Z,9.78
2022-11-10T01:12:55.818Z,9.79
2022-11-10T01:13:55.790Z,9.79
2022-11-10T01:14:55.773Z,9.79
2022-11-10T01:15:55.783Z,9.79
2022-11-10T01:16:55.862Z,9.79
2022-11-10T01:17:55.746Z,9.82
2022-11-10T01:18:55.736Z,9.76
2022-11-10T01:19:55.711Z,9.73
2022-11-10T01:20:55.716Z,9.68
2022-11-10T01:21:55.684Z,9.67
2022-11-10T01:22:55.784Z,9.68
2022-11-10T01:23:55.667Z,9.68
2022-11-10T01:24:55.635Z,9.68
2022-11-10T01:25:55.647Z,9.71
2022-11-10T01:26:55.641Z,9.70
2022-11-10T01:27:55.607Z,9.70
2022-11-10T01:28:55.610Z,9.71
2022-11-10T01:29:55.590Z,9.73
2022-11-10T01:30:55.579Z,9.68
2022-11-10T01:31:55.538Z,9.67
2022-11-10T01:32:55.558Z,9.66
2022-11-10T01:33:55.527Z,9.66
2022-11-10T01:34:55.631Z,9.67
2022-11-10T01:35:55.520Z,9.63
2022-11-10T01:36:55.481Z,9.66
2022-11-10T01:37:55.497Z,9.64
2022-11-10T01:38:55.472Z,9.63
2022-11-10T01:39:55.489Z,9.61
2022-11-10T01:40:55.562Z,9.63
2022-11-10T01:41:55.429Z,9.61
2022-11-10T01:42:55.389Z,9.63
2022-11-10T01:43:55.404Z,9.61
2022-11-10T01:44:55.394Z,9.60
2022-11-10T01:45:55.359Z,9.56
2022-11-10T01:46:55.472Z,9.53
2022-11-10T01:47:55.360Z,9.53
2022-11-10T01:48:55.311Z,9.53
2022-11-10T01:49:55.334Z,9.53
2022-11-10T01:50:55.323Z,9.53
2022-11-10T01:51:55.290Z,9.50
2022-11-10T01:52:55.405Z,9.50
2022-11-10T01:53:55.267Z,9.52
2022-11-10T01:54:55.250Z,9.48
2022-11-10T01:55:55.257Z,9.48
2022-11-10T01:56:55.214Z,9.48
2022-11-10T01:57:55.220Z,9.43
2022-11-10T01:58:55.242Z,9.42
2022-11-10T01:59:55.178Z,9.42
2022-11-10T02:00:55.197Z,9.42
2022-11-10T02:01:55.169Z,9.52
2022-11-10T02:02:55.140Z,9.53
2022-11-10T02:03:55.126Z,9.56
2022-11-10T02:04:55.149Z,9.53
2022-11-10T02:05:55.109Z,9.50
2022-11-10T02:06:55.145Z,9.49
2022-11-10T02:07:55.090Z,9.52
2022-11-10T02:08:55.058Z,9.50
2022-11-10T02:09:55.064Z,9.48
2022-11-10T02:10:55.179Z,9.43
2022-11-10T02:11:55.028Z,9.39
2022-11-10T02:12:55.011Z,9.42
2022-11-10T02:13:55.003Z,9.42
2022-11-10T02:14:54.991Z,9.42
2022-11-10T02:15:54.983Z,9.45
2022-11-10T02:16:55.102Z,9.43
2022-11-10T02:17:54.940Z,9.46
2022-11-10T02:18:54.928Z,9.46
2022-11-10T02:19:54.942Z,9.45
2022-11-10T02:20:54.886Z,9.42
2022-11-10T02:21:54.904Z,9.40
2022-11-10T02:22:55.005Z,9.46
2022-11-10T02:23:54.869Z,9.46
2022-11-10T02:24:54.864Z,9.43
2022-11-10T02:25:54.833Z,9.42
2022-11-10T02:26:54.835Z,9.40
2022-11-10T02:27:54.813Z,9.40
2022-11-10T02:28:54.802Z,9.42
2022-11-10T02:29:54.795Z,9.43
2022-11-10T02:30:54.779Z,9.43
2022-11-10T02:31:54.734Z,9.40
2022-11-10T02:32:54.733Z,9.39
2022-11-10T02:33:54.747Z,9.34
2022-11-10T02:34:54.856Z,9.31
2022-11-10T02:35:54.701Z,9.27
2022-11-10T02:36:54.709Z,9.28
2022-11-10T02:37:54.674Z,9.30
2022-11-10T02:38:54.661Z,9.35
2022-11-10T02:39:54.670Z,9.38
2022-11-10T02:40:54.680Z,9.38
2022-11-10T02:41:54.627Z,9.34
2022-11-10T02:42:54.620Z,9.38
2022-11-10T02:43:54.575Z,9.35
2022-11-10T02:44:54.600Z,9.38
2022-11-10T02:45:54.567Z,9.34
2022-11-10T02:46:54.671Z,9.35
2022-11-10T02:47:54.558Z,9.32
2022-11-10T02:48:54.551Z,9.31
2022-11-10T02:49:54.508Z,9.28
2022-11-10T02:50:54.509Z,9.27
2022-11-10T02:51:54.493Z,9.27
2022-11-10T02:52:54.595Z,9.27
2022-11-10T02:53:54.486Z,9.27
2022-11-10T02:54:54.463Z,9.27
2022-11-10T02:55:54.430Z,9.38
2022-11-10T02:56:54.444Z,9.35
2022-11-10T02:57:54.413Z,9.32
2022-11-10T02:58:54.420Z,9.30
2022-11-10T02:59:54.402Z,9.30
2022-11-10T03:00:54.411Z,9.30
2022-11-10T03:01:54.371Z,9.25
2022-11-10T03:02:54.363Z,9.23
2022-11-10T03:03:54.341Z,9.25
2022-11-10T03:04:54.432Z,9.24
2022-11-10T03:05:54.315Z,9.24
2022-11-10T03:06:54.390Z,9.23
2022-11-10T03:07:54.282Z,9.23
2022-11-10T03:08:54.285Z,9.21
2022-11-10T03:09:54.244Z,9.21
2022-11-10T03:10:54.370Z,9.20
2022-11-10T03:11:54.238Z,9.20
2022-11-10T03:12:54.227Z,9.15
2022-11-10T03:14:02.535Z,9.18
2022-11-10T03:14:55.206Z,9.18
2022-11-10T03:15:54.182Z,9.15
2022-11-10T03:16:54.208Z,9.20
2022-11-10T03:17:54.147Z,9.20
2022-11-10T03:18:54.142Z,9.21
2022-11-10T03:19:54.127Z,9.28
2022-11-10T03:20:54.116Z,9.28
2022-11-10T03:21:54.099Z,9.24
2022-11-10T03:22:54.235Z,9.24
2022-11-10T03:23:54.070Z,9.16
2022-11-10T03:24:54.079Z,9.18
2022-11-10T03:25:54.048Z,9.18
2022-11-10T03:26:54.037Z,9.18
2022-11-10T03:27:54.028Z,9.21
2022-11-10T03:28:54.129Z,9.23
2022-11-10T03:29:53.994Z,9.24
2022-11-10T03:30:53.993Z,9.23
2022-11-10T03:31:53.959Z,9.21
2022-11-10T03:32:53.962Z,9.20
2022-11-10T03:33:53.942Z,9.15
2022-11-10T03:34:54.041Z,9.12
2022-11-10T03:35:53.925Z,9.15
2022-11-10T03:36:53.903Z,9.20
2022-11-10T03:37:53.897Z,9.23
2022-11-10T03:38:53.892Z,9.20
2022-11-10T03:39:53.873Z,9.20
2022-11-10T03:41:54.852Z,9.18
2022-11-10T03:42:53.827Z,9.16
2022-11-10T03:43:53.794Z,9.15
2022-11-10T03:44:53.815Z,9.10
2022-11-10T03:45:53.782Z,9.05
2022-11-10T03:46:53.794Z,9.02
2022-11-10T03:47:53.764Z,9.05
2022-11-10T03:48:53.903Z,9.05
2022-11-10T03:49:53.745Z,9.06
2022-11-10T03:50:53.718Z,9.06
2022-11-10T03:51:53.697Z,9.05
2022-11-10T03:52:53.719Z,9.04
2022-11-10T03:53:53.672Z,9.09
2022-11-10T03:54:53.679Z,9.09
2022-11-10T03:55:53.651Z,9.05
2022-11-10T03:56:53.650Z,9.04
2022-11-10T03:57:53.620Z,9.05
2022-11-10T03:58:53.724Z,9.04
2022-11-10T03:59:53.611Z,9.02
2022-11-10T04:00:53.567Z,9.04
2022-11-10T04:01:53.671Z,9.09
2022-11-10T04:02:53.564Z,9.06
2022-11-10T04:03:53.552Z,9.04
2022-11-10T04:04:53.583Z,9.10
2022-11-10T04:05:53.524Z,9.12
2022-11-10T04:06:53.549Z,9.09
2022-11-10T04:07:53.502Z,9.09
2022-11-10T04:08:53.497Z,9.10
2022-11-10T04:09:53.459Z,9.18
2022-11-10T04:10:53.572Z,9.18
2022-11-10T04:11:53.439Z,9.13
2022-11-10T04:12:53.420Z,9.13
2022-11-10T04:13:53.425Z,9.13
2022-11-10T04:14:53.415Z,9.06
2022-11-10T04:15:53.383Z,9.04
2022-11-10T04:16:53.416Z,9.06
2022-11-10T04:17:53.342Z,9.04
2022-11-10T04:18:53.343Z,9.02
2022-11-10T04:19:53.356Z,8.99
2022-11-10T04:20:53.324Z,8.96
2022-11-10T04:21:53.325Z,9.01
2022-11-10T04:22:53.346Z,9.04
2022-11-10T04:23:53.274Z,9.02
2022-11-10T04:24:53.286Z,9.01
2022-11-10T04:25:53.276Z,8.99
2022-11-10T04:26:53.244Z,8.96
2022-11-10T04:27:53.238Z,8.97
2022-11-10T04:28:53.324Z,8.94
2022-11-10T04:29:53.222Z,8.94
2022-11-10T04:30:53.198Z,8.93
2022-11-10T04:31:53.184Z,8.94
2022-11-10T04:32:53.181Z,8.97
2022-11-10T04:33:53.148Z,8.97
2022-11-10T04:34:53.166Z,8.97
2022-11-10T04:35:53.142Z,8.94
2022-11-10T04:36:53.107Z,8.94
2022-11-10T04:37:53.101Z,8.94
2022-11-10T04:38:53.103Z,8.97
2022-11-10T04:39:53.067Z,8.99
2022-11-10T04:40:53.086Z,9.01
2022-11-10T04:41:54.434Z,8.99
2022-11-10T04:42:53.053Z,9.02
2022-11-10T04:43:53.009Z,9.04
2022-11-10T04:44:53.003Z,9.06
2022-11-10T04:45:52.998Z,9.06
2022-11-10T04:46:53.010Z,9.02
2022-11-10T04:47:52.982Z,9.04
2022-11-10T04:48:52.960Z,9.09
2022-11-10T04:49:52.943Z,9.13
2022-11-10T04:50:52.944Z,9.12
2022-11-10T04:51:52.986Z,9.09
2022-11-10T04:52:53.023Z,9.04
2022-11-10T04:53:52.871Z,8.99
2022-11-10T04:54:52.880Z,8.97
2022-11-10T04:55:52.866Z,8.99
2022-11-10T04:56:52.846Z,8.99
2022-11-10T04:57:52.834Z,9.01
2022-11-10T04:58:52.944Z,9.04
2022-11-10T04:59:52.832Z,9.04
2022-11-10T05:00:52.821Z,9.05
2022-11-10T05:01:52.787Z,9.10
2022-11-10T05:02:52.782Z,9.04
2022-11-10T05:03:52.748Z,9.06
2022-11-10T05:04:52.788Z,9.09
2022-11-10T05:05:52.728Z,9.06
2022-11-10T05:06:52.736Z,9.09
2022-11-10T05:07:52.716Z,9.06
2022-11-10T05:08:52.690Z,9.06
2022-11-10T05:09:52.670Z,9.05
2022-11-10T05:10:52.798Z,9.13
2022-11-10T05:11:52.654Z,9.13
2022-11-10T05:12:52.640Z,9.10
2022-11-10T05:13:52.632Z,9.06
2022-11-10T05:14:52.621Z,9.06
2022-11-10T05:15:52.595Z,9.05
2022-11-10T05:16:52.631Z,9.04
2022-11-10T05:17:52.568Z,9.04
2022-11-10T05:18:52.560Z,9.05
2022-11-10T05:19:52.554Z,9.04
2022-11-10T05:20:52.542Z,9.05
2022-11-10T05:21:52.525Z,9.06
2022-11-10T05:22:52.644Z,9.09
2022-11-10T05:23:52.470Z,9.09
2022-11-10T05:24:52.494Z,9.09
2022-11-10T05:25:52.455Z,9.04
2022-11-10T05:26:52.459Z,9.01
2022-11-10T05:27:52.445Z,9.06
2022-11-10T05:28:52.560Z,9.05
2022-11-10T05:29:52.416Z,9.04
2022-11-10T05:30:52.415Z,9.04
2022-11-10T05:31:52.383Z,9.05
2022-11-10T05:32:52.386Z,9.09
2022-11-10T05:33:52.346Z,9.06
2022-11-10T05:34:52.462Z,9.05
2022-11-10T05:35:52.345Z,9.05
2022-11-10T05:36:52.322Z,9.12
2022-11-10T05:37:52.306Z,9.12
2022-11-10T05:38:52.307Z,9.06
2022-11-10T05:39:52.264Z,9.04
2022-11-10T05:40:52.395Z,9.05
2022-11-10T05:41:52.250Z,9.04
2022-11-10T05:42:52.235Z,9.04
2022-11-10T05:43:52.220Z,9.01
2022-11-10T05:44:52.231Z,9.02
2022-11-10T05:45:52.186Z,9.01
2022-11-10T05:46:52.306Z,8.99
2022-11-10T05:47:52.188Z,8.99
2022-11-10T05:48:52.145Z,9.02
2022-11-10T05:49:52.155Z,9.02
2022-11-10T05:50:52.150Z,9.01
2022-11-10T05:51:52.118Z,9.01
2022-11-10T05:52:52.249Z,9.02
2022-11-10T05:53:52.857Z,9.01
2022-11-10T05:54:52.078Z,9.02
2022-11-10T05:55:52.080Z,9.02
2022-11-10T05:56:52.051Z,9.02
2022-11-10T05:57:52.053Z,9.06
2022-11-10T05:58:52.084Z,9.13
2022-11-10T05:59:52.021Z,9.16
2022-11-10T06:00:51.989Z,9.24
2022-11-10T06:01:52.693Z,9.31
2022-11-10T06:02:52.031Z,9.38
2022-11-10T06:03:52.023Z,9.43
2022-11-10T06:04:52.034Z,9.48
2022-11-10T06:05:51.939Z,9.49
2022-11-10T06:06:51.950Z,9.52
2022-11-10T06:07:51.915Z,9.56
2022-11-10T06:08:51.913Z,9.57
2022-11-10T06:09:51.898Z,9.57
2022-11-10T06:10:51.915Z,9.60
2022-11-10T06:11:51.852Z,9.63
2022-11-10T06:12:51.847Z,9.64
2022-11-10T06:13:51.837Z,9.66
2022-11-10T06:14:51.821Z,9.70
2022-11-10T06:15:51.823Z,9.71
2022-11-10T06:16:51.948Z,9.78
2022-11-10T06:17:51.774Z,9.81
2022-11-10T06:18:51.777Z,9.79
2022-11-10T06:19:51.757Z,9.81
2022-11-10T06:20:51.736Z,9.82
2022-11-10T06:21:57.052Z,9.83
2022-11-10T06:22:52.849Z,9.83
2022-11-10T06:23:51.696Z,9.86
2022-11-10T06:24:51.698Z,9.89
2022-11-10T06:25:51.666Z,9.88
2022-11-10T06:26:51.793Z,9.93
2022-11-10T06:27:51.650Z,9.97
2022-11-10T06:28:51.746Z,10.01
2022-11-10T06:29:51.631Z,10.04
2022-11-10T06:30:51.622Z,10.09
2022-11-10T06:31:51.593Z,10.14
2022-11-10T06:32:51.570Z,10.15
2022-11-10T06:33:51.580Z,10.18
2022-11-10T06:34:54.379Z,10.19
2022-11-10T06:35:51.539Z,10.24
2022-11-10T06:36:51.531Z,10.24
2022-11-10T06:37:51.510Z,10.26
2022-11-10T06:38:51.499Z,10.28
2022-11-10T06:39:51.497Z,10.28
2022-11-10T06:40:51.490Z,10.33
2022-11-10T06:41:51.473Z,10.32
2022-11-10T06:42:51.454Z,10.30
2022-11-10T06:43:51.441Z,10.33
2022-11-10T06:44:51.435Z,10.33
2022-11-10T06:45:51.403Z,10.36
2022-11-10T06:46:51.491Z,10.36
2022-11-10T06:47:51.396Z,10.36
2022-11-10T06:48:51.374Z,10.36
2022-11-10T06:49:51.352Z,10.36
2022-11-10T06:50:51.335Z,10.37
2022-11-10T06:51:51.334Z,10.42
2022-11-10T06:52:51.347Z,10.43
2022-11-10T06:53:51.306Z,10.43
2022-11-10T06:54:51.279Z,10.43
2022-11-10T06:55:51.259Z,10.43
2022-11-10T06:56:51.251Z,10.44
2022-11-10T06:57:51.238Z,10.46
2022-11-10T06:58:51.336Z,10.46
2022-11-10T06:59:51.238Z,10.46
2022-11-10T07:00:51.220Z,10.44
2022-11-10T07:01:51.210Z,10.44
2022-11-10T07:02:51.189Z,10.44
2022-11-10T07:04:17.628Z,10.43
2022-11-10T07:04:52.166Z,10.46
2022-11-10T07:05:51.171Z,10.46
2022-11-10T07:06:51.205Z,10.51
2022-11-10T07:07:51.147Z,10.51
2022-11-10T07:08:51.118Z,10.53
2022-11-10T07:09:51.080Z,10.53
2022-11-10T07:10:51.183Z,10.56
2022-11-10T07:11:51.074Z,10.59
2022-11-10T07:12:51.042Z,10.60
2022-11-10T07:13:51.045Z,10.59
2022-11-10T07:14:51.026Z,10.60
2022-11-10T07:15:51.001Z,10.60
2022-11-10T07:16:51.034Z,10.60
2022-11-10T07:17:50.979Z,10.60
2022-11-10T07:18:50.953Z,10.62
2022-11-10T07:19:50.957Z,10.62
2022-11-10T07:20:50.952Z,10.60
2022-11-10T07:21:50.925Z,10.60
2022-11-10T07:22:50.945Z,10.58
2022-11-10T07:23:50.909Z,10.56
2022-11-10T07:24:50.876Z,10.58
2022-11-10T07:25:50.883Z,10.58
2022-11-10T07:26:50.869Z,10.58
2022-11-10T07:27:50.852Z,10.56
2022-11-10T07:28:50.968Z,10.60
2022-11-10T07:29:50.825Z,10.65
2022-11-10T07:30:50.807Z,10.70
2022-11-10T07:31:50.803Z,10.71
2022-11-10T07:32:50.758Z,10.70
2022-11-10T07:33:54.559Z,10.73
2022-11-10T07:34:50.851Z,10.73
2022-11-10T07:35:50.737Z,10.76
2022-11-10T07:36:50.720Z,10.76
2022-11-10T07:37:50.707Z,10.73
2022-11-10T07:38:50.695Z,10.70
2022-11-10T07:39:50.693Z,10.68
2022-11-10T07:40:50.779Z,10.68
2022-11-10T07:41:52.715Z,10.68
2022-11-10T07:42:50.654Z,10.71
2022-11-10T07:43:50.631Z,10.68
2022-11-10T07:44:50.624Z,10.70
2022-11-10T07:45:50.588Z,10.68
2022-11-10T07:46:50.616Z,10.65
2022-11-10T07:47:50.593Z,10.65
2022-11-10T07:48:50.553Z,10.63
2022-11-10T07:49:50.547Z,10.66
2022-11-10T07:50:50.544Z,10.68
2022-11-10T07:51:50.522Z,10.71
2022-11-10T07:52:50.613Z,10.74
2022-11-10T07:53:50.497Z,10.78
2022-11-10T07:54:50.486Z,10.81
2022-11-10T07:55:50.464Z,10.81
2022-11-10T07:56:50.451Z,10.80
2022-11-10T07:57:50.446Z,10.84
2022-11-10T07:58:50.536Z,10.89
2022-11-10T07:59:52.900Z,10.94
2022-11-10T08:00:51.395Z,11.07
2022-11-10T08:01:50.459Z,11.31
2022-11-10T08:02:50.388Z,11.47
2022-11-10T08:03:50.358Z,11.53
2022-11-10T08:04:50.471Z,11.57
2022-11-10T08:05:50.339Z,11.67
2022-11-10T08:06:50.347Z,11.64
2022-11-10T08:07:50.378Z,11.62
2022-11-10T08:08:50.300Z,11.56
2022-11-10T08:09:50.281Z,11.53
2022-11-10T08:10:50.367Z,11.49
2022-11-10T08:11:50.256Z,11.52
2022-11-10T08:12:50.227Z,11.47
2022-11-10T08:13:50.240Z,11.53
2022-11-10T08:14:50.220Z,11.61
2022-11-10T08:15:50.212Z,11.56
2022-11-10T08:16:50.312Z,11.49
2022-11-10T08:17:50.172Z,11.41
2022-11-10T08:18:50.148Z,11.44
2022-11-10T08:19:50.173Z,11.54
2022-11-10T08:20:50.112Z,11.46
2022-11-10T08:21:50.136Z,11.36
2022-11-10T08:22:50.132Z,11.34
2022-11-10T08:23:50.082Z,11.35
2022-11-10T08:24:50.070Z,11.39
2022-11-10T08:25:50.078Z,11.49
2022-11-10T08:26:50.061Z,11.50
2022-11-10T08:27:50.033Z,11.46
2022-11-10T08:28:50.158Z,11.47
2022-11-10T08:29:50.018Z,11.59
2022-11-10T08:30:49.986Z,11.72
2022-11-10T08:31:49.997Z,11.80
2022-11-10T08:32:49.950Z,11.99
2022-11-10T08:33:49.969Z,12.13
2022-11-10T08:34:50.090Z,12.30
2022-11-10T08:35:49.919Z,12.42
2022-11-10T08:36:49.920Z,12.52
2022-11-10T08:37:49.896Z,12.63
2022-11-10T08:38:49.886Z,12.71
2022-11-10T08:39:49.894Z,12.74
2022-11-10T08:40:49.978Z,12.66
2022-11-10T08:41:49.872Z,12.87
2022-11-10T08:42:49.844Z,13.12
2022-11-10T08:43:49.818Z,13.06
2022-11-10T08:44:49.812Z,12.99
2022-11-10T08:45:49.798Z,12.93
2022-11-10T08:46:49.808Z,12.88
2022-11-10T08:47:49.792Z,12.54
2022-11-10T08:48:49.742Z,12.38
2022-11-10T08:49:49.763Z,12.34
2022-11-10T08:50:49.788Z,12.29
2022-11-10T08:51:49.710Z,12.31
2022-11-10T08:52:49.825Z,12.33
2022-11-10T08:53:49.680Z,12.27
2022-11-10T08:54:49.663Z,12.23
2022-11-10T08:55:49.665Z,12.12
2022-11-10T08:56:49.683Z,12.13
2022-11-10T08:57:49.624Z,12.34
2022-11-10T08:58:53.371Z,12.52
2022-11-10T08:59:49.626Z,12.57
2022-11-10T09:00:49.596Z,12.60
2022-11-10T09:01:49.600Z,12.51
2022-11-10T09:02:49.585Z,12.57
2022-11-10T09:03:49.561Z,12.57
2022-11-10T09:04:49.611Z,12.51
2022-11-10T09:05:52.401Z,12.46
2022-11-10T09:06:50.582Z,12.26
2022-11-10T09:07:49.511Z,12.11
2022-11-10T09:08:49.486Z,12.04
2022-11-10T09:10:01.508Z,12.06
2022-11-10T09:10:50.608Z,12.09
2022-11-10T09:11:49.457Z,12.08
2022-11-10T09:12:49.438Z,12.04
2022-11-10T09:13:49.443Z,12.06
2022-11-10T09:14:49.428Z,12.11
2022-11-10T09:15:49.390Z,12.11
2022-11-10T09:16:49.523Z,12.19
2022-11-10T09:17:49.379Z,12.20
2022-11-10T09:18:49.340Z,12.27
2022-11-10T09:19:49.433Z,12.41
2022-11-10T09:20:49.310Z,12.63
2022-11-10T09:21:49.342Z,12.95
2022-11-10T09:22:49.441Z,13.32
2022-11-10T09:23:49.300Z,13.76
2022-11-10T09:24:49.293Z,14.02
2022-11-10T09:25:49.271Z,14.16
2022-11-10T09:26:49.261Z,14.10
2022-11-10T09:27:49.258Z,14.17
2022-11-10T09:28:49.358Z,14.43
2022-11-10T09:29:49.212Z,14.27
2022-11-10T09:30:49.210Z,14.35
2022-11-10T09:31:49.206Z,14.54
2022-11-10T09:32:49.181Z,14.32
2022-11-10T09:33:49.178Z,14.47
2022-11-10T09:34:52.974Z,14.80
2022-11-10T09:35:49.132Z,14.64
2022-11-10T09:36:49.137Z,14.49
2022-11-10T09:37:49.094Z,14.10
2022-11-10T09:38:49.093Z,14.25
2022-11-10T09:39:49.098Z,14.43
2022-11-10T09:40:49.094Z,14.46
2022-11-10T09:41:49.068Z,14.64
2022-11-10T09:42:49.051Z,14.95
2022-11-10T09:43:49.017Z,14.95
2022-11-10T09:44:49.021Z,14.81
2022-11-10T09:45:48.998Z,14.84
2022-11-10T09:46:49.097Z,15.03
2022-11-10T09:47:57.835Z,14.68
2022-11-10T09:48:49.959Z,14.84
2022-11-10T09:49:48.973Z,15.12
2022-11-10T09:50:48.951Z,15.68
2022-11-10T09:51:48.918Z,15.49
2022-11-10T09:52:49.043Z,15.08
2022-11-10T09:53:48.900Z,14.86
2022-11-10T09:54:48.879Z,14.81
2022-11-10T09:55:48.885Z,14.94
2022-11-10T09:56:48.849Z,15.03
2022-11-10T09:57:49.172Z,15.01
2022-11-10T09:58:48.953Z,15.11
2022-11-10T09:59:48.822Z,15.23
2022-11-10T10:00:48.792Z,15.20
2022-11-10T10:01:48.855Z,15.28
2022-11-10T10:02:48.785Z,15.41
2022-11-10T10:03:48.762Z,15.36
2022-11-10T10:04:51.867Z,14.72
2022-11-10T10:05:48.724Z,14.74
2022-11-10T10:07:09.678Z,15.17
2022-11-10T10:07:49.766Z,15.24
2022-11-10T10:08:48.694Z,15.08
2022-11-10T10:09:48.697Z,14.60
2022-11-10T10:10:48.806Z,14.20
2022-11-10T10:11:48.646Z,14.20
2022-11-10T10:12:48.649Z,14.25
2022-11-10T10:13:48.622Z,13.99
2022-11-10T10:14:48.603Z,13.89
2022-11-10T10:15:48.610Z,14.10
2022-11-10T10:16:48.713Z,14.16
2022-11-10T10:17:48.587Z,14.56
2022-11-10T10:18:48.568Z,14.53
2022-11-10T10:19:48.569Z,14.28
2022-11-10T10:20:48.509Z,14.01
2022-11-10T10:21:48.533Z,14.01
2022-11-10T10:22:48.633Z,13.80
2022-11-10T10:24:08.661Z,13.65
2022-11-10T10:24:49.483Z,13.55
2022-11-10T10:25:48.475Z,13.52
2022-11-10T10:26:48.481Z,13.56
2022-11-10T10:27:48.453Z,13.59
2022-11-10T10:28:48.453Z,13.63
2022-11-10T10:29:48.434Z,13.67
2022-11-10T10:30:48.404Z,13.73
2022-11-10T10:31:48.381Z,13.76
2022-11-10T10:32:48.351Z,13.73
2022-11-10T10:33:48.363Z,13.76
2022-11-10T10:34:48.496Z,13.79
2022-11-10T10:35:48.312Z,13.84
2022-11-10T10:36:48.430Z,13.87
2022-11-10T10:37:48.309Z,13.91
2022-11-10T10:38:48.285Z,13.99
2022-11-10T10:39:48.289Z,14.07
2022-11-10T10:40:48.377Z,14.09
2022-11-10T10:41:48.269Z,14.10
2022-11-10T10:42:48.249Z,14.17
2022-11-10T10:43:48.221Z,14.27
2022-11-10T10:44:48.209Z,14.38
2022-11-10T10:45:48.221Z,14.42
2022-11-10T10:46:48.284Z,14.49
2022-11-10T10:47:48.190Z,14.61
2022-11-10T10:48:53.835Z,14.68
2022-11-10T10:49:49.153Z,14.72
2022-11-10T10:50:48.139Z,14.67
2022-11-10T10:51:48.110Z,14.47
2022-11-10T10:52:48.234Z,14.43
2022-11-10T10:53:48.138Z,14.52
2022-11-10T10:54:48.072Z,14.50
2022-11-10T10:55:48.066Z,14.47
2022-11-10T10:56:48.052Z,14.53
2022-11-10T10:57:48.038Z,14.50
2022-11-10T10:58:48.073Z,14.52
2022-11-10T10:59:48.008Z,14.43
2022-11-10T11:00:48.014Z,14.37
2022-11-10T11:01:48.064Z,14.42
2022-11-10T11:02:47.979Z,14.43
2022-11-10T11:03:47.966Z,14.44
2022-11-10T11:04:48.085Z,14.57
2022-11-10T11:05:47.933Z,14.65
2022-11-10T11:06:47.946Z,14.72
2022-11-10T11:07:47.905Z,14.71
2022-11-10T11:08:47.892Z,14.61
2022-11-10T11:09:47.889Z,14.67
2022-11-10T11:10:47.907Z,14.54
2022-11-10T11:11:47.843Z,14.46
2022-11-10T11:12:47.849Z,14.46
2022-11-10T11:13:47.815Z,14.39
2022-11-10T11:14:47.806Z,14.43
2022-11-10T11:15:47.817Z,14.43
2022-11-10T11:16:47.910Z,14.38
2022-11-10T11:17:47.814Z,14.35
2022-11-10T11:18:47.781Z,14.27
2022-11-10T11:19:47.742Z,14.29
2022-11-10T11:20:47.737Z,14.38
2022-11-10T11:21:47.724Z,14.52
2022-11-10T11:22:47.752Z,14.56
2022-11-10T11:23:47.689Z,14.49
2022-11-10T11:24:47.693Z,14.52
2022-11-10T11:25:47.674Z,14.52
2022-11-10T11:26:47.952Z,14.52
2022-11-10T11:27:47.664Z,14.62
2022-11-10T11:28:47.749Z,14.67
2022-11-10T11:29:47.636Z,14.84
2022-11-10T11:30:47.636Z,14.90
2022-11-10T11:31:47.586Z,14.90
2022-11-10T11:32:47.597Z,14.91
2022-11-10T11:33:47.547Z,14.86
2022-11-10T11:34:47.721Z,14.81
2022-11-10T11:35:47.555Z,14.71
2022-11-10T11:36:47.544Z,14.62
2022-11-10T11:37:47.516Z,14.68
2022-11-10T11:38:47.513Z,14.75
2022-11-10T11:39:47.616Z,14.80
2022-11-10T11:40:47.619Z,14.81
2022-11-10T11:41:47.513Z,14.68
2022-11-10T11:42:47.477Z,14.68
2022-11-10T11:43:47.415Z,14.78
2022-11-10T11:44:47.440Z,14.83
2022-11-10T11:45:47.450Z,14.72
2022-11-10T11:46:49.345Z,14.69
2022-11-10T11:47:47.393Z,14.78
2022-11-10T11:48:47.358Z,14.86
2022-11-10T11:49:47.364Z,14.86
2022-11-10T11:50:47.343Z,14.81
2022-11-10T11:51:47.320Z,14.80
2022-11-10T11:52:47.342Z,14.81
2022-11-10T11:53:47.293Z,14.69
2022-11-10T11:54:47.289Z,14.65
2022-11-10T11:55:47.274Z,14.61
2022-11-10T11:56:47.251Z,14.54
2022-11-10T11:57:47.244Z,14.47
2022-11-10T11:58:47.367Z,14.46
2022-11-10T11:59:47.201Z,14.46
2022-11-10T12:00:47.237Z,14.47
2022-11-10T12:01:47.182Z,14.52
2022-11-10T12:02:52.489Z,14.56
2022-11-10T12:03:48.205Z,14.56
2022-11-10T12:04:47.144Z,14.54
2022-11-10T12:05:47.147Z,14.57
2022-11-10T12:06:47.185Z,14.62
2022-11-10T12:07:47.104Z,14.67
2022-11-10T12:08:47.097Z,14.67
2022-11-10T12:09:47.218Z,14.72
2022-11-10T12:10:47.080Z,14.80
2022-11-10T12:11:47.046Z,14.78
2022-11-10T12:12:47.059Z,14.78
2022-11-10T12:13:47.027Z,14.81
2022-11-10T12:14:47.015Z,14.81
2022-11-10T12:15:47.111Z,14.84
2022-11-10T12:16:46.988Z,14.84
2022-11-10T12:17:46.982Z,14.75
2022-11-10T12:18:49.717Z,14.75
2022-11-10T12:19:46.938Z,14.75
2022-11-10T12:20:46.953Z,14.80
2022-11-10T12:21:46.939Z,14.75
2022-11-10T12:22:46.918Z,14.80
2022-11-10T12:23:46.917Z,14.83
2022-11-10T12:24:46.882Z,14.80
2022-11-10T12:25:46.866Z,14.80
2022-11-10T12:26:46.890Z,14.72
2022-11-10T12:27:46.874Z,14.74
2022-11-10T12:28:46.812Z,14.81
2022-11-10T12:29:46.817Z,14.94
2022-11-10T12:30:46.806Z,15.06
2022-11-10T12:31:46.762Z,15.08
2022-11-10T12:32:46.787Z,15.08
2022-11-10T12:33:46.873Z,14.95
2022-11-10T12:34:46.735Z,15.01
2022-11-10T12:35:46.740Z,15.06
2022-11-10T12:36:46.714Z,15.12
2022-11-10T12:37:46.715Z,15.15
2022-11-10T12:38:46.710Z,15.17
2022-11-10T12:39:46.780Z,15.20
2022-11-10T12:40:46.666Z,15.24
2022-11-10T12:41:46.652Z,15.28
2022-11-10T12:42:46.649Z,15.31
2022-11-10T12:43:46.610Z,15.26
2022-11-10T12:44:46.620Z,15.31
2022-11-10T12:45:46.708Z,15.33
2022-11-10T12:46:51.804Z,15.28
2022-11-10T12:47:47.561Z,15.19
2022-11-10T12:48:46.551Z,15.15
2022-11-10T12:49:46.551Z,15.12
2022-11-10T12:50:46.538Z,15.08
2022-11-10T12:51:46.638Z,15.03
2022-11-10T12:52:46.512Z,15.05
2022-11-10T12:53:46.482Z,15.12
2022-11-10T12:54:46.477Z,15.13
2022-11-10T12:55:46.475Z,15.12
2022-11-10T12:56:46.440Z,15.24
2022-11-10T12:57:46.472Z,15.36
2022-11-10T12:58:46.426Z,15.45
2022-11-10T12:59:46.392Z,15.59
2022-11-10T13:00:46.395Z,15.60
2022-11-10T13:01:46.401Z,15.52
2022-11-10T13:02:46.366Z,15.49
2022-11-10T13:03:46.467Z,15.45
2022-11-10T13:04:46.343Z,15.45
2022-11-10T13:05:46.336Z,15.51